createdAt,value
2022-12-11T00:00:09.302Z,31.52
2022-12-11T00:02:35.994Z,36.45
2022-12-11T00:05:02.712Z,36.17
2022-12-11T00:07:29.432Z,28.90
2022-12-11T00:09:56.197Z,33.22
2022-12-11T00:12:22.980Z,34.33
2022-12-11T00:14:49.678Z,31.58
2022-12-11T00:17:16.394Z,34.28
2022-12-11T00:19:43.133Z,28.40
2022-12-11T00:22:09.925Z,33.45
2022-12-11T00:24:36.654Z,32.25
2022-12-11T00:27:03.513Z,34.50
2022-12-11T00:29:30.274Z,29.48
2022-12-11T00:31:57.037Z,31.52
2022-12-11T00:34:23.805Z,31.92
2022-12-11T00:36:50.580Z,30.05
2022-12-11T00:39:17.275Z,32.53
2022-12-11T00:41:44.154Z,29.55
2022-12-11T09:42:58.924Z,12.90
2022-12-11T09:45:25.877Z,14.85
2022-12-11T09:47:55.842Z,13.50
2022-12-11T09:50:30.367Z,9.57
2022-12-11T09:53:05.972Z,12.30
2022-12-11T09:55:39.786Z,11.70
2022-12-11T09:58:31.017Z,13.32
2022-12-11T10:01:19.875Z,15.88
2022-12-11T10:04:13.120Z,13.50
2022-12-11T10:06:55.452Z,11.98
2022-12-11T10:09:40.897Z,11.75
2022-12-11T10:12:23.110Z,9.95
2022-12-11T10:15:15.817Z,9.88
2022-12-11T10:17:44.859Z,9.38
2022-12-11T10:20:31.127Z,10.93
2022-12-11T10:22:59.230Z,10.23
2022-12-11T10:25:44.864Z,9.57
2022-12-11T10:28:16.224Z,8.77
2022-12-11T10:31:19.029Z,8.13
2022-12-11T10:33:59.981Z,7.07
2022-12-11T10:36:34.345Z,7.95
2022-12-11T10:39:01.716Z,10.18
2022-12-11T10:41:39.707Z,6.68
2022-12-11T10:44:23.879Z,5.85
2022-12-11T10:47:14.229Z,8.05
2022-12-11T10:49:58.561Z,7.82
2022-12-11T10:52:30.015Z,9.15
2022-12-11T10:55:02.158Z,7.50
2022-12-11T10:57:35.022Z,8.00
2022-12-11T11:00:05.193Z,6.78
2022-12-11T11:05:13.000Z,5.80
2022-12-11T11:07:40.124Z,6.70
2022-12-11T11:10:13.598Z,6.40
2022-12-11T11:12:47.278Z,6.93
2022-12-11T11:15:17.716Z,6.72
2022-12-11T11:17:55.421Z,5.95
2022-12-11T11:20:29.223Z,6.85
2022-12-11T11:23:05.014Z,6.35
2022-12-11T11:25:33.630Z,7.85
2022-12-11T11:28:05.167Z,5.95
2022-12-11T11:30:40.457Z,6.32
2022-12-11T11:33:20.990Z,6.55
2022-12-11T11:35:59.079Z,5.70
2022-12-11T11:38:30.980Z,8.00
2022-12-11T11:41:14.657Z,5.70
2022-12-11T11:44:00.306Z,6.43
2022-12-11T11:46:36.587Z,7.30
2022-12-11T11:49:25.956Z,6.28
2022-12-11T11:52:05.832Z,5.47
2022-12-11T11:54:57.441Z,5.63
2022-12-11T11:57:27.006Z,7.05
2022-12-11T11:59:58.454Z,7.40
2022-12-11T12:02:25.496Z,6.22
2022-12-11T12:04:53.272Z,9.13
2022-12-11T12:07:44.412Z,6.97
2022-12-11T12:10:20.520Z,6.20
2022-12-11T12:13:01.061Z,6.03
2022-12-11T12:15:59.696Z,6.53
2022-12-11T12:18:33.817Z,6.38
2022-12-11T12:21:02.663Z,7.32
2022-12-11T12:23:44.816Z,6.80
2022-12-11T12:26:22.103Z,7.85
2022-12-11T12:28:52.957Z,5.88
2022-12-11T12:31:28.719Z,7.82
2022-12-11T12:34:10.577Z,7.68
2022-12-11T12:37:25.295Z,6.63
2022-12-11T12:39:58.023Z,8.13
2022-12-11T12:42:43.617Z,8.07
2022-12-11T12:45:16.464Z,6.18
2022-12-11T12:47:50.339Z,7.65
2022-12-11T12:50:26.436Z,7.88
2022-12-11T12:52:55.397Z,6.85
2022-12-11T12:55:28.896Z,6.45
2022-12-11T12:58:07.003Z,7.65
2022-12-11T13:00:40.574Z,5.10
2022-12-11T13:03:17.287Z,5.78
2022-12-11T13:05:55.283Z,11.55
2022-12-11T13:08:34.709Z,6.55
2022-12-11T13:11:10.360Z,7.55
2022-12-11T13:13:43.605Z,6.05
2022-12-11T13:16:16.344Z,6.50
2022-12-11T13:18:47.447Z,8.07
2022-12-11T13:21:36.436Z,6.93
2022-12-11T13:24:21.369Z,6.85
2022-12-11T13:26:50.142Z,7.30
2022-12-11T13:29:38.326Z,8.48
2022-12-11T13:32:08.080Z,10.27
2022-12-11T13:34:39.145Z,8.00
2022-12-11T13:37:07.495Z,7.20
2022-12-11T13:39:38.176Z,9.55
2022-12-11T13:42:11.823Z,7.10
2022-12-11T13:44:42.538Z,6.93
2022-12-11T13:47:14.861Z,8.27
2022-12-11T13:49:46.166Z,7.00
2022-12-11T13:52:26.051Z,9.60
2022-12-11T13:54:54.544Z,8.65
2022-12-11T13:57:26.253Z,6.90
2022-12-11T13:59:55.789Z,8.10
2022-12-11T14:05:13.793Z,7.78
2022-12-11T14:07:49.234Z,7.65
2022-12-11T14:10:27.369Z,7.65
2022-12-11T14:12:54.289Z,9.82
2022-12-11T14:15:21.518Z,7.05
2022-12-11T14:17:51.881Z,9.13
2022-12-11T14:20:23.175Z,8.80
2022-12-11T14:22:50.366Z,7.70
2022-12-11T14:25:22.861Z,8.70
2022-12-11T14:27:52.073Z,9.50
2022-12-11T14:30:34.245Z,8.40
2022-12-11T14:33:05.306Z,7.90
2022-12-11T14:35:39.207Z,8.88
2022-12-11T14:38:24.026Z,7.60
2022-12-11T14:40:56.831Z,6.65
2022-12-11T14:43:31.367Z,6.97
2022-12-11T14:46:05.034Z,7.45
2022-12-11T14:48:39.222Z,7.13
2022-12-11T14:51:12.626Z,9.10
2022-12-11T14:53:43.996Z,7.93
2022-12-11T14:56:17.899Z,7.43
2022-12-11T14:58:56.880Z,9.90
2022-12-11T15:01:29.851Z,9.52
2022-12-11T15:04:24.173Z,11.48
2022-12-11T15:06:52.276Z,7.50
2022-12-11T15:09:20.386Z,9.23
2022-12-11T15:11:48.985Z,7.72
2022-12-11T15:14:21.465Z,7.63
2022-12-11T15:16:49.404Z,7.53
2022-12-11T15:19:24.939Z,8.48
2022-12-11T15:21:52.235Z,8.75
2022-12-11T15:24:30.647Z,9.32
2022-12-11T15:26:59.890Z,8.95
2022-12-11T15:29:38.861Z,9.73
2022-12-11T15:32:08.564Z,9.60
2022-12-11T15:34:43.396Z,9.95
2022-12-11T15:37:30.849Z,9.57
2022-12-11T15:40:00.842Z,8.68
2022-12-11T15:42:43.095Z,9.85
2022-12-11T15:45:23.452Z,8.30
2022-12-11T15:47:51.072Z,8.27
2022-12-11T15:50:26.215Z,9.65
2022-12-11T15:52:55.153Z,8.88
2022-12-11T15:55:23.422Z,9.23
2022-12-11T15:57:59.573Z,10.18
2022-12-11T16:00:28.141Z,8.52
2022-12-11T16:02:56.047Z,9.43
2022-12-11T16:05:23.404Z,8.38
2022-12-11T16:07:54.787Z,8.35
2022-12-11T16:10:22.278Z,9.23
2022-12-11T16:12:49.920Z,8.52
2022-12-11T16:15:23.253Z,7.30
2022-12-11T16:17:50.753Z,8.48
2022-12-11T16:20:17.512Z,8.75
2022-12-11T16:22:44.693Z,9.88
2022-12-11T16:25:11.666Z,10.57
2022-12-11T16:27:38.648Z,8.60
2022-12-11T16:30:05.704Z,10.63
2022-12-11T16:32:32.715Z,9.48
2022-12-11T16:35:02.167Z,12.77
2022-12-11T16:37:28.951Z,10.10
2022-12-11T16:39:55.772Z,9.25
2022-12-11T16:42:22.456Z,10.45
2022-12-11T16:44:49.193Z,11.40
2022-12-11T16:47:16.089Z,9.45
2022-12-11T16:49:43.384Z,10.98
2022-12-11T16:52:10.802Z,11.57
2022-12-11T16:54:40.612Z,10.25
2022-12-11T16:57:07.248Z,12.00
2022-12-11T16:59:37.499Z,13.63
2022-12-11T17:02:04.983Z,12.65
2022-12-11T17:04:32.073Z,11.55
2022-12-11T17:06:58.813Z,12.27
2022-12-11T17:09:25.461Z,11.43
2022-12-11T17:11:53.351Z,14.65
2022-12-11T17:14:20.452Z,13.48
2022-12-11T17:16:48.150Z,12.95
2022-12-11T17:19:15.746Z,17.30
2022-12-11T17:21:47.003Z,18.48
2022-12-11T17:24:17.921Z,14.15
2022-12-11T17:26:44.610Z,12.98
2022-12-11T17:29:12.240Z,14.63
2022-12-11T17:31:39.683Z,12.90
2022-12-11T17:34:06.888Z,13.98
2022-12-11T17:36:33.779Z,13.00
2022-12-11T17:39:00.737Z,13.35
2022-12-11T17:41:27.447Z,11.68
2022-12-11T17:43:54.278Z,12.38
2022-12-11T17:46:21.809Z,10.68
2022-12-11T17:48:49.119Z,9.73
2022-12-11T17:51:21.226Z,12.60
2022-12-11T17:53:48.119Z,11.32
2022-12-11T17:56:14.846Z,10.00
2022-12-11T17:58:41.993Z,13.68
2022-12-11T18:01:10.337Z,11.80
2022-12-11T18:03:38.171Z,11.50
2022-12-11T18:06:08.590Z,10.93
2022-12-11T18:08:36.013Z,11.15
2022-12-11T18:11:29.143Z,12.95
2022-12-11T18:13:56.068Z,10.38
2022-12-11T18:16:29.124Z,14.48
2022-12-11T18:18:56.655Z,11.23
2022-12-11T18:21:29.476Z,10.93
2022-12-11T18:23:56.363Z,9.90
2022-12-11T18:26:23.407Z,11.70
2022-12-11T18:28:53.118Z,10.05
2022-12-11T18:31:21.096Z,12.20
2022-12-11T18:33:48.196Z,11.93
2022-12-11T18:36:17.239Z,9.82
2022-12-11T18:38:44.609Z,9.70
2022-12-11T18:41:13.192Z,7.65
2022-12-11T18:43:40.999Z,10.32
2022-12-11T18:46:14.097Z,8.60
2022-12-11T18:48:42.036Z,8.55
2022-12-11T18:51:11.684Z,8.18
2022-12-11T18:53:41.697Z,9.10
2022-12-11T18:56:11.693Z,7.65
2022-12-11T18:58:38.573Z,9.23
2022-12-11T19:01:10.934Z,9.18
2022-12-11T19:03:38.169Z,9.27
2022-12-11T19:06:14.488Z,7.53
2022-12-11T19:08:41.879Z,8.27
2022-12-11T19:11:09.640Z,7.60
2022-12-11T19:13:36.490Z,9.70
2022-12-11T19:16:03.404Z,8.38
2022-12-11T19:18:30.287Z,6.78
2022-12-11T19:21:08.048Z,8.18
2022-12-11T19:23:35.396Z,8.20
2022-12-11T19:26:02.443Z,8.05
2022-12-11T19:28:29.488Z,7.57
2022-12-11T19:30:56.170Z,6.45
2022-12-11T19:33:22.961Z,9.73
2022-12-11T19:35:49.582Z,8.13
2022-12-11T19:38:16.254Z,8.18
2022-12-11T19:40:44.445Z,8.05
2022-12-11T19:43:11.724Z,8.38
2022-12-11T19:45:39.018Z,9.30
2022-12-11T19:48:06.006Z,8.10
2022-12-11T19:50:35.459Z,9.73
2022-12-11T19:53:02.105Z,9.55
2022-12-11T19:55:28.946Z,10.82
2022-12-11T19:57:55.916Z,8.73
2022-12-11T20:00:22.646Z,7.35
2022-12-11T20:02:49.396Z,8.43
2022-12-11T20:05:16.496Z,7.50
2022-12-11T20:07:46.572Z,8.02
2022-12-11T20:12:40.142Z,8.15
2022-12-11T20:15:07.280Z,8.40
2022-12-11T20:17:33.982Z,7.35
2022-12-11T20:20:00.877Z,10.50
2022-12-11T20:22:27.519Z,11.77
2022-12-11T20:24:54.244Z,7.40
2022-12-11T20:27:20.933Z,8.25
2022-12-11T20:29:47.671Z,11.77
2022-12-11T20:32:14.422Z,8.65
2022-12-11T20:34:41.330Z,9.88
2022-12-11T20:37:08.167Z,8.77
2022-12-11T20:39:35.721Z,12.00
2022-12-11T20:42:04.873Z,10.90
2022-12-11T20:44:32.476Z,11.07
2022-12-11T20:46:59.337Z,8.52
2022-12-11T20:49:26.433Z,9.25
2022-12-11T20:51:53.969Z,10.10
2022-12-11T20:54:20.808Z,8.98
2022-12-11T20:56:47.750Z,10.38
2022-12-11T20:59:14.549Z,8.68
2022-12-11T21:01:41.501Z,8.82
2022-12-11T21:04:08.422Z,9.82
2022-12-11T21:06:37.565Z,8.60
2022-12-11T21:09:25.409Z,12.83
2022-12-11T21:11:52.583Z,9.77
2022-12-11T21:14:20.111Z,12.60
2022-12-11T21:16:47.100Z,11.50
2022-12-11T21:19:17.039Z,9.90
2022-12-11T21:21:45.330Z,11.45
2022-12-11T21:24:26.544Z,13.15
2022-12-11T21:26:56.179Z,13.43
2022-12-11T21:29:27.727Z,12.82
2022-12-11T21:31:54.614Z,11.98
2022-12-11T21:34:25.356Z,13.43
2022-12-11T21:36:56.621Z,13.55
2022-12-11T21:39:24.383Z,12.65
2022-12-11T21:41:52.622Z,15.70
2022-12-11T21:47:06.314Z,12.10
2022-12-11T21:49:32.968Z,12.95
2022-12-11T21:52:00.128Z,12.05
2022-12-11T21:54:27.007Z,12.15
2022-12-11T21:56:54.634Z,10.82
2022-12-11T21:59:21.404Z,14.20
2022-12-11T22:01:48.122Z,14.32
2022-12-11T22:04:16.049Z,14.00
2022-12-11T22:06:43.685Z,13.50
2022-12-11T22:09:12.523Z,14.20
2022-12-11T22:11:40.542Z,13.30
2022-12-11T22:14:07.952Z,15.70
2022-12-11T22:16:36.551Z,13.98
2022-12-11T22:19:03.917Z,13.38
2022-12-11T22:21:30.714Z,13.50
2022-12-11T22:23:57.441Z,13.15
2022-12-11T22:26:26.151Z,14.98
2022-12-11T22:28:53.712Z,13.15
2022-12-11T22:31:23.156Z,14.82
2022-12-11T22:33:51.600Z,14.55
2022-12-11T22:36:19.028Z,14.40
2022-12-11T22:38:46.636Z,15.68
2022-12-11T22:41:22.010Z,15.88
2022-12-11T22:43:49.583Z,15.40
2022-12-11T22:46:18.072Z,13.07
2022-12-11T22:48:44.858Z,14.55
2022-12-11T22:51:12.083Z,14.95
2022-12-11T22:53:38.851Z,13.57
2022-12-11T22:56:10.098Z,12.55
2022-12-11T22:58:37.097Z,12.27
2022-12-11T23:01:08.266Z,11.70
2022-12-11T23:03:35.068Z,12.60
2022-12-11T23:06:05.548Z,13.85
2022-12-11T23:08:33.155Z,12.95
2022-12-11T23:11:00.088Z,18.08
2022-12-11T23:13:26.821Z,17.27
2022-12-11T23:15:53.550Z,16.42
2022-12-11T23:18:20.275Z,15.20
2022-12-11T23:20:48.521Z,17.17
2022-12-11T23:23:15.215Z,15.60
2022-12-11T23:25:41.983Z,17.75
2022-12-11T23:28:08.836Z,16.70
2022-12-11T23:30:37.546Z,16.85
2022-12-11T23:33:06.602Z,17.13
2022-12-11T23:35:33.582Z,16.98
2022-12-11T23:38:00.268Z,16.67
2022-12-11T23:40:27.108Z,18.23
2022-12-11T23:42:53.995Z,15.75
2022-12-11T23:45:21.203Z,16.55
2022-12-11T23:47:48.452Z,16.27
2022-12-11T23:50:15.649Z,17.67
2022-12-11T23:52:42.363Z,16.15
2022-12-11T23:55:10.603Z,16.90
2022-12-11T23:57:37.821Z,16.52
